Sedalia, MO

11:20 PM CST on March 02, 2015 (GMT -0600)
KMOSEDAL5 | Change Station
CLOSE
Current Station
Personal Weather Station
Location: Sedalia, MO
Elevation: 837 ft
Nearby Weather Stations

Elev 837 ft 38.70 °N, 93.29 °W | Updated 37 seconds ago

Overcast
Overcast
35.6 °F
Feels Like 32 °F
N
4.0
Wind Variable Wind from SSE
Gusts 7.0 mph

Today
High -- | Low -- °F
--% Chance of Precip.
Yesterday
High -- | Low -- °F
Precip. -- in
6:44 AM 6:06 PM
Waxing Gibbous, 94% visible
Pressure 30.13 in
Visibility 10.0 miles
Clouds Overcast 2200 ft
Windchill 32 °F
Dew Point 26 °F
Humidity 68%
Rainfall 0.14 in
Snow Depth Not available.
UV 0 out of 12
Pollen 1.30 out of 12
Air Quality Not available.
Flu Activity Not available.
METAR KDMO 030453Z AUTO 15003KT 10SM OVC022 02/M04 A3010 RMK AO2 SLP201 T00171044

More Conditions Fewer Conditions

Pressure 30.13 in
Visibility 10.0 miles
Clouds Overcast 2200 ft
Windchill 32 °F
Dew Point 26 °F
Humidity 68%
Rainfall 0.14 in
Snow Depth Not available.
UV 0 out of 12
Pollen 1.30 out of 12
Air Quality Not available.
Flu Activity Not available.
METAR KDMO 030453Z AUTO 15003KT 10SM OVC022 02/M04 A3010 RMK AO2 SLP201 T00171044

More Conditions Fewer Conditions

10-Day Weather Forecast

Almanac

Astronomy

Mar. 02, 2015 Rise Set
Actual Time
Civil Twilight
Nautical Twilight
Astronomical Twilight
Moon
Length of Visible Light
Length of Day
Tomorrow will be .
, % of the Moon is Illuminated

Today's Extremes

State Highs State Lows

Community

WunderPhotos

Upload Photos

1,802,066 photos uploaded!

WunderBlogs® & News

Nearby

Air Quality

  Air Quality AQ Index Pollutant
Not available.

Snow Depth

Station Depth Elevation

Earthquake Activity

City Distance Mag. Time & Date
Minimum magnitude displayed is 2.5.

Coastal Water Temperatures

Place Temperature

Nearby Weather Stations